createdAt,value
2018-12-15T00:02:05.717Z,26.90
2018-12-15T00:04:34.017Z,27.83
2018-12-15T00:07:02.285Z,28.20
2018-12-15T00:09:30.480Z,28.57
2018-12-15T00:11:58.738Z,26.90
2018-12-15T00:14:26.920Z,25.90
2018-12-15T00:16:55.153Z,25.30
2018-12-15T00:19:23.360Z,27.07
2018-12-15T00:21:51.636Z,26.50
2018-12-15T00:24:19.828Z,27.50
2018-12-15T00:26:48.188Z,27.00
2018-12-15T00:29:16.405Z,28.10
2018-12-15T00:31:44.712Z,29.37
2018-12-15T00:34:12.949Z,27.57
2018-12-15T00:36:41.206Z,31.20
2018-12-15T00:39:09.444Z,26.07
2018-12-15T00:41:37.642Z,27.53
2018-12-15T00:44:05.888Z,28.57
2018-12-15T00:46:34.088Z,28.03
2018-12-15T00:49:02.311Z,25.43
2018-12-15T00:51:30.568Z,27.60
2018-12-15T00:53:58.819Z,28.90
2018-12-15T00:56:27.023Z,27.10
2018-12-15T00:58:55.276Z,26.70
2018-12-15T01:01:23.500Z,28.30
2018-12-15T01:03:51.712Z,26.00
2018-12-15T01:06:19.944Z,25.67
2018-12-15T01:08:48.260Z,29.87
2018-12-15T01:11:16.517Z,25.50
2018-12-15T01:13:44.718Z,26.73
2018-12-15T01:16:12.981Z,27.50
2018-12-15T01:18:41.204Z,27.17
2018-12-15T01:21:09.476Z,26.87
2018-12-15T01:23:37.672Z,26.43
2018-12-15T01:26:05.873Z,28.63
2018-12-15T01:28:34.113Z,26.37
2018-12-15T01:31:02.310Z,27.07
2018-12-15T01:33:30.552Z,24.97
2018-12-15T01:35:58.747Z,27.90
2018-12-15T01:38:26.981Z,28.67
2018-12-15T01:40:55.181Z,28.53
2018-12-15T01:43:23.614Z,29.20
2018-12-15T01:45:51.836Z,29.90
2018-12-15T01:48:20.084Z,31.07
2018-12-15T01:50:48.421Z,28.57
2018-12-15T01:53:16.666Z,29.00
2018-12-15T01:55:44.856Z,28.93
2018-12-15T01:58:13.073Z,30.60
2018-12-15T02:00:41.425Z,28.00
2018-12-15T02:03:09.625Z,28.77
2018-12-15T02:05:38.059Z,29.77
2018-12-15T02:08:06.424Z,29.13
2018-12-15T02:10:34.684Z,27.33
2018-12-15T02:13:02.884Z,28.57
2018-12-15T02:15:31.076Z,30.20
2018-12-15T02:17:59.371Z,28.63
2018-12-15T02:20:27.676Z,28.90
2018-12-15T02:22:55.932Z,28.73
2018-12-15T02:25:24.124Z,29.77
2018-12-15T02:27:52.366Z,27.47
2018-12-15T02:30:20.552Z,29.07
2018-12-15T02:32:48.821Z,30.53
2018-12-15T02:35:17.192Z,28.70
2018-12-15T02:37:45.429Z,30.53
2018-12-15T02:40:13.864Z,29.10
2018-12-15T02:42:42.122Z,30.07
2018-12-15T02:45:10.368Z,30.50
2018-12-15T02:47:41.672Z,30.03
2018-12-15T02:50:08.796Z,33.43
2018-12-15T02:52:37.057Z,29.40
2018-12-15T02:55:05.622Z,29.83
2018-12-15T02:57:33.867Z,30.53
2018-12-15T03:00:02.145Z,29.53
2018-12-15T03:02:30.372Z,36.10
2018-12-15T03:04:58.565Z,34.17
2018-12-15T03:07:26.876Z,30.90
2018-12-15T03:09:55.208Z,33.07
2018-12-15T03:12:23.408Z,31.07
2018-12-15T03:14:51.609Z,30.03
2018-12-15T03:17:19.869Z,29.43
2018-12-15T03:19:48.064Z,28.80
2018-12-15T03:22:16.366Z,28.77
2018-12-15T03:24:45.039Z,28.83
2018-12-15T03:27:13.282Z,31.60
2018-12-15T03:29:41.477Z,34.70
2018-12-15T03:32:09.737Z,28.37
2018-12-15T03:34:38.010Z,32.13
2018-12-15T03:37:06.204Z,31.47
2018-12-15T03:39:34.464Z,29.10
2018-12-15T03:42:02.644Z,31.33
2018-12-15T03:44:30.852Z,33.93
2018-12-15T03:46:59.104Z,29.37
2018-12-15T03:49:27.313Z,26.90
2018-12-15T03:51:55.548Z,26.90
2018-12-15T03:54:23.757Z,30.17
2018-12-15T03:56:51.953Z,27.77
2018-12-15T03:59:20.672Z,28.13
2018-12-15T04:01:48.993Z,28.33
2018-12-15T04:04:17.228Z,29.03
2018-12-15T04:06:45.472Z,27.27
2018-12-15T04:09:13.661Z,26.87
2018-12-15T04:11:41.900Z,27.90
2018-12-15T04:14:10.131Z,27.47
2018-12-15T04:16:38.357Z,27.00
2018-12-15T04:19:06.626Z,29.60
2018-12-15T04:21:34.840Z,25.60
2018-12-15T04:24:03.060Z,25.60
2018-12-15T04:26:31.294Z,28.27
2018-12-15T04:28:59.592Z,25.60
2018-12-15T04:31:27.843Z,25.07
2018-12-15T04:33:56.191Z,28.03
2018-12-15T04:36:24.377Z,27.67
2018-12-15T04:38:52.608Z,26.30
2018-12-15T04:41:20.810Z,25.97
2018-12-15T04:43:49.376Z,24.03
2018-12-15T04:46:17.596Z,28.03
2018-12-15T04:48:45.788Z,25.03
2018-12-15T04:51:14.037Z,26.87
2018-12-15T04:53:42.321Z,26.57
2018-12-15T04:56:10.559Z,26.97
2018-12-15T04:58:38.833Z,26.27
2018-12-15T05:01:07.064Z,26.10
2018-12-15T05:03:35.372Z,26.27
2018-12-15T05:06:03.604Z,26.10
2018-12-15T05:08:31.817Z,25.97
2018-12-15T05:11:00.131Z,25.97
2018-12-15T05:13:28.317Z,26.30
2018-12-15T05:15:56.567Z,26.17
2018-12-15T05:18:24.776Z,25.63
2018-12-15T05:20:53.048Z,26.00
2018-12-15T05:23:21.292Z,26.93
2018-12-15T05:25:49.520Z,25.37
2018-12-15T05:28:17.772Z,24.07
2018-12-15T05:30:46.101Z,24.73
2018-12-15T05:33:14.307Z,25.63
2018-12-15T05:35:42.546Z,25.33
2018-12-15T05:38:10.759Z,24.20
2018-12-15T05:40:38.989Z,24.73
2018-12-15T05:43:07.209Z,25.17
2018-12-15T05:45:35.412Z,26.63
2018-12-15T05:48:03.698Z,23.73
2018-12-15T05:50:31.892Z,25.30
2018-12-15T05:53:00.152Z,23.43
2018-12-15T05:55:28.427Z,25.60
2018-12-15T05:57:56.656Z,26.57
2018-12-15T06:00:25.083Z,26.77
2018-12-15T06:02:53.308Z,26.47
2018-12-15T06:05:21.751Z,25.00
2018-12-15T06:07:50.107Z,25.77
2018-12-15T06:10:18.318Z,23.63
2018-12-15T06:12:46.568Z,25.33
2018-12-15T06:15:14.802Z,24.00
2018-12-15T06:17:43.013Z,27.73
2018-12-15T06:20:11.245Z,23.80
2018-12-15T06:22:39.488Z,25.80
2018-12-15T06:25:07.966Z,25.23
2018-12-15T06:27:36.269Z,24.00
2018-12-15T06:30:05.953Z,24.43
2018-12-15T06:32:34.176Z,26.20
2018-12-15T06:35:02.585Z,25.40
2018-12-15T06:37:30.820Z,25.13
2018-12-15T06:39:59.135Z,27.77
2018-12-15T06:42:27.424Z,23.03
2018-12-15T06:44:55.675Z,25.57
2018-12-15T06:47:24.021Z,25.20
2018-12-15T06:49:52.308Z,24.47
2018-12-15T06:52:20.573Z,26.57
2018-12-15T06:54:48.896Z,25.77
2018-12-15T06:57:17.179Z,25.37
2018-12-15T06:59:45.464Z,30.20
2018-12-15T07:02:13.692Z,26.70
2018-12-15T07:04:41.968Z,25.30
2018-12-15T07:07:10.280Z,26.70
2018-12-15T07:09:38.635Z,25.17
2018-12-15T07:12:07.016Z,26.57
2018-12-15T07:14:35.281Z,25.17
2018-12-15T07:17:03.714Z,25.40
2018-12-15T07:19:31.936Z,26.57
2018-12-15T07:22:00.273Z,24.97
2018-12-15T07:24:28.608Z,27.20
2018-12-15T07:26:56.897Z,27.40
2018-12-15T07:29:25.104Z,26.20
2018-12-15T07:31:53.361Z,26.07
2018-12-15T07:34:21.593Z,28.40
2018-12-15T07:36:49.905Z,26.20
2018-12-15T07:39:18.145Z,25.50
2018-12-15T07:41:46.384Z,24.30
2018-12-15T07:44:14.681Z,27.43
2018-12-15T07:46:42.893Z,24.20
2018-12-15T07:49:11.120Z,25.83
2018-12-15T07:51:39.371Z,25.40
2018-12-15T07:54:07.696Z,28.77
2018-12-15T07:56:35.977Z,25.63
2018-12-15T07:59:04.406Z,26.50
2018-12-15T08:01:32.671Z,27.13
2018-12-15T08:04:00.916Z,25.07
2018-12-15T08:06:29.316Z,25.83
2018-12-15T08:08:57.571Z,28.00
2018-12-15T08:11:31.103Z,25.43
2018-12-15T08:14:03.580Z,26.10
2018-12-15T08:16:32.068Z,27.30
2018-12-15T08:19:00.915Z,25.90
2018-12-15T08:21:29.203Z,25.27
2018-12-15T08:23:57.512Z,24.97
2018-12-15T08:26:25.862Z,23.87
2018-12-15T08:28:54.132Z,26.07
2018-12-15T08:31:22.465Z,25.90
2018-12-15T08:33:50.763Z,25.00
2018-12-15T08:36:19.078Z,25.40
2018-12-15T08:38:47.320Z,23.43
2018-12-15T08:41:15.649Z,22.53
2018-12-15T08:43:43.913Z,22.00
2018-12-15T08:46:17.117Z,22.77
2018-12-15T08:48:45.452Z,22.40
2018-12-15T08:51:14.070Z,23.37
2018-12-15T08:53:42.660Z,24.47
2018-12-15T08:56:10.925Z,23.63
2018-12-15T08:58:39.263Z,23.93
2018-12-15T09:01:07.656Z,23.53
2018-12-15T09:03:36.144Z,23.83
2018-12-15T09:06:04.530Z,25.47
2018-12-15T09:08:32.836Z,21.80
2018-12-15T09:11:01.090Z,23.30
2018-12-15T09:13:29.332Z,24.37
2018-12-15T09:15:57.632Z,23.30
2018-12-15T09:18:26.011Z,24.07
2018-12-15T09:20:54.310Z,24.30
2018-12-15T09:23:22.579Z,25.73
2018-12-15T09:25:50.932Z,24.37
2018-12-15T09:28:19.244Z,23.57
2018-12-15T09:30:47.476Z,24.10
2018-12-15T09:33:15.752Z,23.80
2018-12-15T09:35:44.073Z,23.97
2018-12-15T09:38:12.264Z,23.70
2018-12-15T09:40:40.477Z,22.97
2018-12-15T09:43:08.702Z,22.73
2018-12-15T09:45:37.116Z,22.23
2018-12-15T09:48:05.307Z,23.53
2018-12-15T09:50:33.932Z,23.27
2018-12-15T09:53:02.167Z,22.37
2018-12-15T09:55:30.432Z,23.27
2018-12-15T09:57:58.769Z,25.40
2018-12-15T10:00:27.032Z,24.77
2018-12-15T10:02:55.315Z,26.60
2018-12-15T10:05:23.900Z,25.57
2018-12-15T10:07:52.092Z,31.13
2018-12-15T10:10:20.345Z,42.43
2018-12-15T10:12:48.616Z,27.10
2018-12-15T10:15:17.029Z,24.30
2018-12-15T10:17:45.425Z,24.97
2018-12-15T10:20:13.694Z,22.07
2018-12-15T10:22:41.949Z,22.30
2018-12-15T10:25:10.183Z,22.43
2018-12-15T10:27:38.416Z,21.90
2018-12-15T10:30:12.492Z,22.40
2018-12-15T10:32:45.900Z,21.57
2018-12-15T10:35:14.097Z,22.00
2018-12-15T10:37:42.400Z,23.57
2018-12-15T10:40:10.844Z,23.70
2018-12-15T10:42:39.185Z,21.30
2018-12-15T10:45:07.644Z,24.00
2018-12-15T10:47:36.088Z,24.00
2018-12-15T10:50:04.982Z,25.80
2018-12-15T10:52:33.296Z,27.20
2018-12-15T10:55:01.602Z,26.33
2018-12-15T10:57:29.948Z,31.00
2018-12-15T10:59:58.288Z,30.10
2018-12-15T11:02:26.504Z,28.27
2018-12-15T11:04:54.756Z,29.40
2018-12-15T11:07:23.053Z,28.30
2018-12-15T11:09:51.324Z,32.73
2018-12-15T11:12:19.647Z,30.30
2018-12-15T11:14:47.875Z,32.83
2018-12-15T11:17:16.213Z,32.10
2018-12-15T11:19:44.524Z,30.30
2018-12-15T11:22:12.818Z,32.70
2018-12-15T11:24:41.080Z,32.20
2018-12-15T11:27:09.396Z,30.77
2018-12-15T11:29:37.682Z,32.73
2018-12-15T11:32:06.064Z,30.30
2018-12-15T11:34:34.296Z,31.03
2018-12-15T11:37:02.613Z,32.07
2018-12-15T11:39:30.888Z,34.07
2018-12-15T11:41:59.163Z,29.90
2018-12-15T11:44:27.390Z,30.43
2018-12-15T11:46:55.672Z,31.07
2018-12-15T11:49:24.004Z,32.77
2018-12-15T11:51:52.232Z,35.00
2018-12-15T11:54:20.484Z,30.13
2018-12-15T11:56:49.865Z,36.97
2018-12-15T11:59:18.052Z,30.13
2018-12-15T12:01:46.388Z,28.70
2018-12-15T12:04:14.676Z,29.07
2018-12-15T12:06:42.880Z,30.80
2018-12-15T12:09:11.137Z,31.17
2018-12-15T12:11:39.355Z,31.47
2018-12-15T12:14:07.663Z,31.00
2018-12-15T12:16:36.000Z,28.40
2018-12-15T12:19:04.442Z,26.60
2018-12-15T12:21:32.664Z,29.00
2018-12-15T12:24:00.879Z,29.30
2018-12-15T12:26:29.128Z,28.57
2018-12-15T12:28:57.453Z,27.43
2018-12-15T12:31:25.680Z,29.33
2018-12-15T12:33:53.969Z,51.97
2018-12-15T12:36:22.232Z,36.43
2018-12-15T12:38:50.499Z,28.93
2018-12-15T12:41:18.857Z,24.83
2018-12-15T12:43:47.061Z,27.47
2018-12-15T12:46:15.349Z,27.20
2018-12-15T12:48:43.553Z,46.97
2018-12-15T12:51:11.830Z,26.83
2018-12-15T12:53:40.085Z,27.63
2018-12-15T12:56:08.348Z,26.37
2018-12-15T12:58:36.670Z,24.60
2018-12-15T13:01:04.913Z,23.77
2018-12-15T13:03:33.105Z,26.73
2018-12-15T13:06:01.340Z,26.33
2018-12-15T13:08:29.664Z,24.60
2018-12-15T13:10:57.898Z,26.57
2018-12-15T13:13:26.220Z,25.23
2018-12-15T13:15:54.461Z,29.23
2018-12-15T13:18:22.755Z,29.03
2018-12-15T13:20:51.036Z,25.53
2018-12-15T13:23:19.325Z,24.67
2018-12-15T13:25:47.600Z,25.83
2018-12-15T13:28:15.780Z,27.10
2018-12-15T13:30:44.048Z,24.43
2018-12-15T13:33:23.712Z,21.83
2018-12-15T13:35:51.933Z,22.83
2018-12-15T13:38:20.212Z,22.67
2018-12-15T13:40:48.517Z,21.53
2018-12-15T13:43:16.744Z,20.97
2018-12-15T13:45:45.068Z,17.60
2018-12-15T13:48:13.431Z,15.77
2018-12-15T13:50:41.847Z,16.90
2018-12-15T13:53:10.044Z,18.77
2018-12-15T13:55:38.244Z,18.00
2018-12-15T13:58:06.601Z,16.90
2018-12-15T14:00:34.887Z,19.60
2018-12-15T14:03:03.292Z,20.87
2018-12-15T14:05:31.584Z,19.20
2018-12-15T14:07:59.873Z,20.00
2018-12-15T14:10:28.101Z,21.83
2018-12-15T14:12:56.292Z,23.13
2018-12-15T14:15:24.610Z,22.90
2018-12-15T14:17:52.919Z,23.57
2018-12-15T14:20:21.157Z,21.60
2018-12-15T14:22:49.428Z,20.60
2018-12-15T14:25:17.649Z,22.73
2018-12-15T14:27:45.828Z,23.37
2018-12-15T14:30:14.128Z,23.90
2018-12-15T14:32:42.386Z,24.73
2018-12-15T14:35:10.809Z,23.53
2018-12-15T14:37:39.136Z,24.93
2018-12-15T14:40:07.572Z,23.47
2018-12-15T14:42:35.789Z,25.53
2018-12-15T14:45:04.329Z,28.83
2018-12-15T14:47:32.523Z,28.10
2018-12-15T14:50:00.874Z,26.53
2018-12-15T14:52:29.226Z,30.10
2018-12-15T14:54:57.453Z,28.27
2018-12-15T14:57:25.720Z,30.03
2018-12-15T14:59:54.336Z,28.90
2018-12-15T15:02:22.616Z,31.60
2018-12-15T15:04:50.937Z,29.83
2018-12-15T15:07:19.149Z,31.30
2018-12-15T15:09:47.471Z,29.80
2018-12-15T15:12:15.780Z,28.07
2018-12-15T15:14:43.973Z,32.07
2018-12-15T15:17:12.262Z,31.50
2018-12-15T15:19:40.500Z,28.13
2018-12-15T15:22:08.840Z,29.33
2018-12-15T15:24:37.050Z,30.30
2018-12-15T15:27:05.321Z,28.87
2018-12-15T15:29:33.596Z,33.30
2018-12-15T15:32:01.852Z,33.43
2018-12-15T15:34:30.044Z,30.00
2018-12-15T15:36:58.344Z,30.10
2018-12-15T15:39:26.541Z,32.13
2018-12-15T15:41:54.773Z,32.53
2018-12-15T15:44:23.064Z,36.93
2018-12-15T15:46:51.296Z,33.93
2018-12-15T15:49:19.538Z,32.33
2018-12-15T15:51:47.771Z,35.10
2018-12-15T15:54:16.057Z,29.73
2018-12-15T15:56:44.268Z,31.80
2018-12-15T15:59:12.489Z,30.23
2018-12-15T16:01:40.740Z,29.50
2018-12-15T16:04:09.266Z,29.37
2018-12-15T16:06:37.441Z,27.10
2018-12-15T16:09:09.234Z,24.47
2018-12-15T16:11:38.060Z,23.27
2018-12-15T16:14:06.352Z,24.60
2018-12-15T16:16:35.680Z,22.90
2018-12-15T16:19:04.280Z,24.40
2018-12-15T16:21:32.628Z,20.40
2018-12-15T16:24:01.003Z,20.70
2018-12-15T16:26:29.401Z,24.03
2018-12-15T16:28:57.627Z,21.97
2018-12-15T16:31:25.942Z,22.03
2018-12-15T16:33:54.243Z,21.93
2018-12-15T16:36:22.499Z,22.33
2018-12-15T16:38:50.780Z,22.20
2018-12-15T16:41:18.999Z,20.47
2018-12-15T16:43:47.304Z,20.33
2018-12-15T16:46:15.504Z,20.57
2018-12-15T16:48:43.766Z,21.93
2018-12-15T16:51:12.106Z,21.27
2018-12-15T16:53:40.384Z,21.63
2018-12-15T16:56:08.637Z,22.50
2018-12-15T16:58:36.901Z,22.13
2018-12-15T17:01:05.222Z,24.17
2018-12-15T17:03:33.644Z,23.17
2018-12-15T17:06:01.944Z,21.77
2018-12-15T17:08:30.193Z,23.37
2018-12-15T17:10:58.536Z,25.20
2018-12-15T17:13:26.762Z,23.67
2018-12-15T17:15:55.052Z,23.90
2018-12-15T17:18:23.308Z,22.83
2018-12-15T17:20:56.628Z,24.80
2018-12-15T17:23:21.911Z,24.87
2018-12-15T17:25:50.104Z,25.73
2018-12-15T17:28:18.324Z,24.53
2018-12-15T17:30:46.552Z,29.30
2018-12-15T17:33:14.869Z,27.27
2018-12-15T17:35:43.212Z,24.43
2018-12-15T17:38:11.416Z,23.37
2018-12-15T17:40:39.667Z,24.67
2018-12-15T17:43:07.859Z,27.67
2018-12-15T17:45:36.129Z,25.03
2018-12-15T17:48:04.548Z,31.50
2018-12-15T17:50:32.808Z,26.17
2018-12-15T17:53:01.084Z,26.20
2018-12-15T17:55:29.274Z,23.90
2018-12-15T17:57:57.511Z,28.37
2018-12-15T18:00:25.976Z,23.63
2018-12-15T18:02:54.313Z,24.20
2018-12-15T18:05:22.577Z,26.83
2018-12-15T18:07:50.778Z,25.13
2018-12-15T18:10:19.079Z,25.50
2018-12-15T18:12:47.355Z,25.47
2018-12-15T18:15:15.560Z,24.13
2018-12-15T18:17:43.753Z,26.00
2018-12-15T18:20:12.216Z,28.30
2018-12-15T18:22:40.451Z,25.90
2018-12-15T18:25:08.748Z,27.07
2018-12-15T18:27:37.013Z,28.77
2018-12-15T18:30:07.343Z,29.03
2018-12-15T18:32:35.580Z,29.93
2018-12-15T18:35:04.125Z,29.17
2018-12-15T18:37:32.349Z,25.53
2018-12-15T18:40:00.605Z,25.97
2018-12-15T18:42:29.892Z,27.47
2018-12-15T18:44:58.094Z,26.63
2018-12-15T18:47:26.325Z,26.10
2018-12-15T18:49:54.584Z,26.73
2018-12-15T18:52:22.777Z,29.03
2018-12-15T18:54:50.968Z,29.03
2018-12-15T18:57:19.244Z,26.50
2018-12-15T18:59:47.437Z,34.83
2018-12-15T19:02:15.701Z,26.40
2018-12-15T19:04:43.995Z,29.43
2018-12-15T19:07:12.194Z,29.47
2018-12-15T19:09:40.409Z,26.57
2018-12-15T19:12:08.636Z,26.53
2018-12-15T19:14:36.840Z,25.50
2018-12-15T19:17:05.308Z,24.60
2018-12-15T19:19:33.540Z,24.70
2018-12-15T19:22:01.767Z,26.83
2018-12-15T19:24:30.033Z,27.37
2018-12-15T19:26:58.429Z,25.00
2018-12-15T19:29:26.641Z,27.23
2018-12-15T19:31:54.871Z,25.93
2018-12-15T19:34:23.073Z,30.33
2018-12-15T19:36:51.288Z,26.27
2018-12-15T19:39:19.507Z,25.20
2018-12-15T19:41:47.719Z,24.87
2018-12-15T19:44:15.939Z,32.63
2018-12-15T19:46:44.197Z,25.43
2018-12-15T19:49:12.436Z,29.07
2018-12-15T19:51:40.630Z,26.13
2018-12-15T19:54:08.984Z,23.40
2018-12-15T19:56:37.177Z,23.37
2018-12-15T19:59:05.484Z,24.90
2018-12-15T20:01:33.677Z,24.53
2018-12-15T20:04:02.009Z,23.63
2018-12-15T20:06:30.436Z,23.50
2018-12-15T20:08:58.636Z,23.20
2018-12-15T20:11:26.900Z,23.93
2018-12-15T20:13:55.116Z,24.93
2018-12-15T20:16:23.321Z,24.07
2018-12-15T20:18:51.552Z,24.07
2018-12-15T20:21:19.752Z,21.87
2018-12-15T20:23:48.004Z,22.03
2018-12-15T20:26:16.209Z,22.73
2018-12-15T20:28:44.412Z,21.43
2018-12-15T20:31:12.647Z,22.43
2018-12-15T20:33:40.896Z,20.70
2018-12-15T20:36:09.265Z,21.43
2018-12-15T20:38:37.521Z,22.70
2018-12-15T20:41:05.756Z,19.40
2018-12-15T20:43:34.864Z,21.67
2018-12-15T20:46:03.126Z,21.20
2018-12-15T20:48:31.437Z,20.40
2018-12-15T20:50:59.641Z,20.90
2018-12-15T20:53:27.892Z,20.60
2018-12-15T20:55:56.517Z,22.97
2018-12-15T20:58:24.728Z,24.47
2018-12-15T21:00:53.087Z,25.87
2018-12-15T21:03:21.286Z,21.07
2018-12-15T21:05:49.495Z,22.27
2018-12-15T21:08:17.884Z,22.37
2018-12-15T21:10:46.129Z,25.20
2018-12-15T21:13:14.384Z,23.83
2018-12-15T21:15:45.776Z,24.10
2018-12-15T21:18:13.976Z,24.47
2018-12-15T21:20:42.360Z,27.57
2018-12-15T21:23:10.557Z,26.60
2018-12-15T21:25:38.764Z,25.10
2018-12-15T21:28:07.029Z,26.10
2018-12-15T21:30:35.336Z,24.60
2018-12-15T21:33:03.633Z,26.00
2018-12-15T21:35:31.820Z,28.03
2018-12-15T21:38:00.137Z,26.93
2018-12-15T21:40:28.428Z,29.70
2018-12-15T21:42:56.624Z,28.20
2018-12-15T21:45:24.856Z,26.33
2018-12-15T21:47:57.654Z,27.60
2018-12-15T21:50:23.372Z,28.63
2018-12-15T21:52:51.600Z,26.60
2018-12-15T21:55:19.980Z,27.40
2018-12-15T21:57:48.193Z,25.20
2018-12-15T22:00:16.668Z,27.97
2018-12-15T22:02:44.989Z,27.13
2018-12-15T22:05:13.230Z,27.03
2018-12-15T22:07:41.485Z,28.57
2018-12-15T22:10:09.955Z,26.47
2018-12-15T22:12:38.164Z,26.93
2018-12-15T22:15:06.972Z,27.13
2018-12-15T22:17:35.172Z,27.27
2018-12-15T22:20:04.223Z,26.37
2018-12-15T22:22:32.488Z,26.50
2018-12-15T22:25:00.700Z,26.57
2018-12-15T22:27:29.021Z,27.47
2018-12-15T22:29:57.316Z,26.13
2018-12-15T22:32:25.550Z,25.90
2018-12-15T22:34:53.806Z,27.13
2018-12-15T22:37:22.088Z,26.77
2018-12-15T22:39:50.296Z,26.37
2018-12-15T22:42:18.549Z,25.90
2018-12-15T22:44:46.768Z,27.03
2018-12-15T22:47:15.117Z,26.60
2018-12-15T22:49:43.453Z,28.33
2018-12-15T22:52:11.724Z,26.97
2018-12-15T22:54:39.932Z,28.43
2018-12-15T22:57:08.157Z,28.07
2018-12-15T22:59:36.412Z,27.43
2018-12-15T23:02:05.001Z,28.77
2018-12-15T23:04:33.243Z,29.80
2018-12-15T23:07:01.495Z,27.73
2018-12-15T23:09:29.733Z,27.27
2018-12-15T23:11:58.017Z,28.23
2018-12-15T23:14:26.265Z,27.90
2018-12-15T23:16:54.665Z,29.07
2018-12-15T23:19:22.886Z,29.30
2018-12-15T23:21:51.174Z,31.23
2018-12-15T23:24:19.645Z,30.30
2018-12-15T23:26:48.158Z,27.80
2018-12-15T23:29:16.440Z,29.50
2018-12-15T23:31:44.634Z,29.83
2018-12-15T23:34:12.841Z,28.00
2018-12-15T23:36:41.181Z,29.17
2018-12-15T23:39:09.402Z,29.50
2018-12-15T23:41:37.675Z,28.80
2018-12-15T23:44:05.989Z,30.27
2018-12-15T23:46:34.236Z,29.97
2018-12-15T23:49:02.464Z,26.90
2018-12-15T23:51:30.676Z,28.80
2018-12-15T23:53:58.992Z,29.50
2018-12-15T23:56:27.231Z,29.57
2018-12-15T23:58:55.499Z,27.93
